Silver Cross, Alabama
Current Conditions -  °F | °C
As of 12:15 PM on Monday 26 Jan 2015 (Local Time) from KDYA Reporting Station
Overcast Overcast  
Wind Chill: 42°   Ceiling: 3000
Heat Index: 47°   Visibility: 10mi
Dew Point: 33°   Wind: 12mph
Humidity: 59%   Direction: 280°W
Pressure: 30.06"   Gusts: 20mph
Location:  31.6568°N, 88.1356°W
Report Text: KDYA 261815Z AUTO 28010G17KT 10SM OVC030 08/01 A3006 RMK AO2 T00820005
Loading
Personal Weather Stations






























Interactive Weather Map New forecast layout! Learn more

10-Day Weather Forecast

Advertisements
Track Severe Weather on mobile